sensor_id;sensor_type;location;lat;lon;timestamp;P1;durP1;ratioP1;P2;durP2;ratioP2
8066;SDS011;4076;48.076;9.118;2023-04-25T00:00:51;10.30;;;4.43;;
8066;SDS011;4076;48.076;9.118;2023-04-25T00:03:17;4.87;;;3.60;;
8066;SDS011;4076;48.076;9.118;2023-04-25T00:05:43;5.07;;;3.40;;
8066;SDS011;4076;48.076;9.118;2023-04-25T00:08:10;7.00;;;3.10;;
8066;SDS011;4076;48.076;9.118;2023-04-25T00:10:36;7.10;;;3.40;;
8066;SDS011;4076;48.076;9.118;2023-04-25T00:13:01;9.40;;;2.90;;
8066;SDS011;4076;48.076;9.118;2023-04-25T00:15:27;4.77;;;3.07;;
8066;SDS011;4076;48.076;9.118;2023-04-25T00:17:55;9.00;;;4.10;;
8066;SDS011;4076;48.076;9.118;2023-04-25T00:20:21;5.83;;;3.17;;
8066;SDS011;4076;48.076;9.118;2023-04-25T00:22:48;4.30;;;2.67;;
8066;SDS011;4076;48.076;9.118;2023-04-25T00:25:14;8.10;;;4.77;;
8066;SDS011;4076;48.076;9.118;2023-04-25T00:27:40;4.80;;;3.03;;
8066;SDS011;4076;48.076;9.118;2023-04-25T00:30:06;5.53;;;3.30;;
8066;SDS011;4076;48.076;9.118;2023-04-25T00:32:32;3.97;;;2.40;;
8066;SDS011;4076;48.076;9.118;2023-04-25T00:34:58;5.17;;;2.70;;
8066;SDS011;4076;48.076;9.118;2023-04-25T00:37:24;4.37;;;2.73;;
8066;SDS011;4076;48.076;9.118;2023-04-25T00:39:50;4.57;;;3.30;;
8066;SDS011;4076;48.076;9.118;2023-04-25T00:42:15;5.20;;;3.67;;
8066;SDS011;4076;48.076;9.118;2023-04-25T00:44:41;5.63;;;3.83;;
8066;SDS011;4076;48.076;9.118;2023-04-25T00:47:08;3.73;;;2.73;;
8066;SDS011;4076;48.076;9.118;2023-04-25T00:49:35;8.47;;;5.57;;
8066;SDS011;4076;48.076;9.118;2023-04-25T00:52:01;14.30;;;3.53;;
8066;SDS011;4076;48.076;9.118;2023-04-25T00:54:26;5.27;;;3.73;;
8066;SDS011;4076;48.076;9.118;2023-04-25T00:56:52;4.50;;;3.13;;
8066;SDS011;4076;48.076;9.118;2023-04-25T00:59:18;4.77;;;2.63;;
8066;SDS011;4076;48.076;9.118;2023-04-25T01:01:45;5.00;;;3.13;;
8066;SDS011;4076;48.076;9.118;2023-04-25T01:04:11;5.70;;;3.50;;
8066;SDS011;4076;48.076;9.118;2023-04-25T01:06:37;12.30;;;3.93;;
8066;SDS011;4076;48.076;9.118;2023-04-25T01:09:03;5.33;;;3.20;;
8066;SDS011;4076;48.076;9.118;2023-04-25T01:11:30;5.57;;;3.23;;
8066;SDS011;4076;48.076;9.118;2023-04-25T01:13:55;8.10;;;5.47;;
8066;SDS011;4076;48.076;9.118;2023-04-25T01:16:21;5.03;;;2.97;;
8066;SDS011;4076;48.076;9.118;2023-04-25T01:18:49;7.53;;;3.80;;
8066;SDS011;4076;48.076;9.118;2023-04-25T01:21:16;8.80;;;4.50;;
8066;SDS011;4076;48.076;9.118;2023-04-25T01:23:42;5.50;;;3.67;;
8066;SDS011;4076;48.076;9.118;2023-04-25T01:26:08;5.37;;;3.40;;
8066;SDS011;4076;48.076;9.118;2023-04-25T01:28:35;9.80;;;3.17;;
8066;SDS011;4076;48.076;9.118;2023-04-25T01:31:01;5.20;;;3.30;;
8066;SDS011;4076;48.076;9.118;2023-04-25T01:33:26;4.00;;;2.57;;
8066;SDS011;4076;48.076;9.118;2023-04-25T01:35:52;6.30;;;3.60;;
8066;SDS011;4076;48.076;9.118;2023-04-25T01:38:18;12.30;;;4.27;;
8066;SDS011;4076;48.076;9.118;2023-04-25T01:40:44;5.50;;;4.20;;
8066;SDS011;4076;48.076;9.118;2023-04-25T01:43:12;5.60;;;4.00;;
8066;SDS011;4076;48.076;9.118;2023-04-25T01:45:39;3.83;;;3.00;;
8066;SDS011;4076;48.076;9.118;2023-04-25T01:48:06;6.63;;;4.00;;
8066;SDS011;4076;48.076;9.118;2023-04-25T01:50:32;6.10;;;3.27;;
8066;SDS011;4076;48.076;9.118;2023-04-25T01:52:58;5.07;;;3.50;;
8066;SDS011;4076;48.076;9.118;2023-04-25T01:55:24;5.73;;;3.67;;
8066;SDS011;4076;48.076;9.118;2023-04-25T01:57:49;7.37;;;3.60;;
8066;SDS011;4076;48.076;9.118;2023-04-25T02:00:15;7.47;;;5.00;;
8066;SDS011;4076;48.076;9.118;2023-04-25T02:02:40;6.90;;;4.47;;
8066;SDS011;4076;48.076;9.118;2023-04-25T02:05:06;5.67;;;3.83;;
8066;SDS011;4076;48.076;9.118;2023-04-25T02:07:32;4.47;;;3.10;;
8066;SDS011;4076;48.076;9.118;2023-04-25T02:09:58;6.50;;;2.93;;
8066;SDS011;4076;48.076;9.118;2023-04-25T02:12:23;7.83;;;4.10;;
8066;SDS011;4076;48.076;9.118;2023-04-25T02:14:51;5.60;;;2.27;;
8066;SDS011;4076;48.076;9.118;2023-04-25T02:17:16;4.07;;;2.60;;
8066;SDS011;4076;48.076;9.118;2023-04-25T02:19:42;4.23;;;3.33;;
8066;SDS011;4076;48.076;9.118;2023-04-25T02:22:08;4.07;;;2.63;;
8066;SDS011;4076;48.076;9.118;2023-04-25T02:24:35;4.80;;;2.87;;
8066;SDS011;4076;48.076;9.118;2023-04-25T02:27:01;9.93;;;2.20;;
8066;SDS011;4076;48.076;9.118;2023-04-25T02:29:26;4.90;;;2.30;;
8066;SDS011;4076;48.076;9.118;2023-04-25T02:31:52;3.83;;;2.27;;
8066;SDS011;4076;48.076;9.118;2023-04-25T02:34:17;4.77;;;2.53;;
8066;SDS011;4076;48.076;9.118;2023-04-25T02:36:43;3.10;;;1.70;;
8066;SDS011;4076;48.076;9.118;2023-04-25T02:39:08;4.00;;;2.50;;
8066;SDS011;4076;48.076;9.118;2023-04-25T02:41:35;5.20;;;2.17;;
8066;SDS011;4076;48.076;9.118;2023-04-25T02:44:01;4.37;;;2.23;;
8066;SDS011;4076;48.076;9.118;2023-04-25T02:46:26;3.43;;;2.13;;
8066;SDS011;4076;48.076;9.118;2023-04-25T02:48:52;3.80;;;2.00;;
8066;SDS011;4076;48.076;9.118;2023-04-25T02:51:17;5.43;;;2.30;;
8066;SDS011;4076;48.076;9.118;2023-04-25T02:53:43;4.00;;;2.47;;
8066;SDS011;4076;48.076;9.118;2023-04-25T02:56:09;3.50;;;2.50;;
8066;SDS011;4076;48.076;9.118;2023-04-25T02:58:35;4.67;;;2.40;;
8066;SDS011;4076;48.076;9.118;2023-04-25T03:01:00;5.43;;;1.90;;
8066;SDS011;4076;48.076;9.118;2023-04-25T03:03:26;5.37;;;2.40;;
8066;SDS011;4076;48.076;9.118;2023-04-25T03:05:51;6.20;;;2.20;;
8066;SDS011;4076;48.076;9.118;2023-04-25T03:08:17;4.10;;;2.37;;
8066;SDS011;4076;48.076;9.118;2023-04-25T03:10:43;4.33;;;2.50;;
8066;SDS011;4076;48.076;9.118;2023-04-25T03:13:10;3.10;;;1.83;;
8066;SDS011;4076;48.076;9.118;2023-04-25T03:15:36;4.07;;;2.30;;
8066;SDS011;4076;48.076;9.118;2023-04-25T03:18:02;8.33;;;2.50;;
8066;SDS011;4076;48.076;9.118;2023-04-25T03:20:28;6.27;;;3.30;;
8066;SDS011;4076;48.076;9.118;2023-04-25T03:22:53;5.37;;;1.87;;
8066;SDS011;4076;48.076;9.118;2023-04-25T03:25:19;3.63;;;2.23;;
8066;SDS011;4076;48.076;9.118;2023-04-25T03:27:45;2.90;;;1.90;;
8066;SDS011;4076;48.076;9.118;2023-04-25T03:30:10;3.40;;;1.93;;
8066;SDS011;4076;48.076;9.118;2023-04-25T03:32:36;4.00;;;2.00;;
8066;SDS011;4076;48.076;9.118;2023-04-25T03:35:02;3.47;;;1.83;;
8066;SDS011;4076;48.076;9.118;2023-04-25T03:37:28;3.90;;;1.87;;
8066;SDS011;4076;48.076;9.118;2023-04-25T03:39:53;4.70;;;2.17;;
8066;SDS011;4076;48.076;9.118;2023-04-25T03:42:19;5.27;;;2.63;;
8066;SDS011;4076;48.076;9.118;2023-04-25T03:44:47;5.23;;;2.73;;
8066;SDS011;4076;48.076;9.118;2023-04-25T03:47:13;4.87;;;2.37;;
8066;SDS011;4076;48.076;9.118;2023-04-25T03:49:39;3.57;;;2.00;;
8066;SDS011;4076;48.076;9.118;2023-04-25T03:52:05;3.20;;;1.90;;
8066;SDS011;4076;48.076;9.118;2023-04-25T03:54:30;5.27;;;2.40;;
8066;SDS011;4076;48.076;9.118;2023-04-25T03:56:56;5.13;;;4.17;;
8066;SDS011;4076;48.076;9.118;2023-04-25T03:59:21;4.17;;;2.77;;
8066;SDS011;4076;48.076;9.118;2023-04-25T04:01:47;4.30;;;2.37;;
8066;SDS011;4076;48.076;9.118;2023-04-25T04:04:12;4.73;;;2.50;;
8066;SDS011;4076;48.076;9.118;2023-04-25T04:06:38;5.73;;;3.03;;
8066;SDS011;4076;48.076;9.118;2023-04-25T04:09:04;8.30;;;3.50;;
8066;SDS011;4076;48.076;9.118;2023-04-25T04:11:31;5.00;;;2.60;;
8066;SDS011;4076;48.076;9.118;2023-04-25T04:13:57;3.83;;;2.03;;
8066;SDS011;4076;48.076;9.118;2023-04-25T04:16:22;3.93;;;2.63;;
8066;SDS011;4076;48.076;9.118;2023-04-25T04:18:48;8.33;;;4.53;;
8066;SDS011;4076;48.076;9.118;2023-04-25T04:21:13;13.57;;;9.00;;
8066;SDS011;4076;48.076;9.118;2023-04-25T04:23:39;14.13;;;7.80;;
8066;SDS011;4076;48.076;9.118;2023-04-25T04:26:05;12.77;;;7.87;;
8066;SDS011;4076;48.076;9.118;2023-04-25T04:28:33;12.93;;;7.53;;
8066;SDS011;4076;48.076;9.118;2023-04-25T04:31:00;5.27;;;4.13;;
8066;SDS011;4076;48.076;9.118;2023-04-25T04:33:27;5.10;;;3.40;;
8066;SDS011;4076;48.076;9.118;2023-04-25T04:35:53;4.60;;;3.57;;
8066;SDS011;4076;48.076;9.118;2023-04-25T04:38:20;7.77;;;3.60;;
8066;SDS011;4076;48.076;9.118;2023-04-25T04:40:46;6.50;;;3.50;;
8066;SDS011;4076;48.076;9.118;2023-04-25T04:43:12;6.73;;;3.90;;
8066;SDS011;4076;48.076;9.118;2023-04-25T04:45:39;4.67;;;2.70;;
8066;SDS011;4076;48.076;9.118;2023-04-25T04:48:05;3.10;;;1.93;;
8066;SDS011;4076;48.076;9.118;2023-04-25T04:50:31;3.00;;;2.10;;
8066;SDS011;4076;48.076;9.118;2023-04-25T04:53:00;3.30;;;2.03;;
8066;SDS011;4076;48.076;9.118;2023-04-25T04:55:26;4.57;;;2.30;;
8066;SDS011;4076;48.076;9.118;2023-04-25T04:57:52;4.13;;;3.30;;
8066;SDS011;4076;48.076;9.118;2023-04-25T05:00:17;3.80;;;2.40;;
8066;SDS011;4076;48.076;9.118;2023-04-25T05:02:43;8.50;;;2.40;;
8066;SDS011;4076;48.076;9.118;2023-04-25T05:05:09;5.13;;;2.20;;
8066;SDS011;4076;48.076;9.118;2023-04-25T05:07:35;5.13;;;2.97;;
8066;SDS011;4076;48.076;9.118;2023-04-25T05:10:01;5.00;;;2.43;;
8066;SDS011;4076;48.076;9.118;2023-04-25T05:12:27;3.80;;;2.73;;
8066;SDS011;4076;48.076;9.118;2023-04-25T05:14:53;4.60;;;2.93;;
8066;SDS011;4076;48.076;9.118;2023-04-25T05:17:18;4.40;;;2.57;;
8066;SDS011;4076;48.076;9.118;2023-04-25T05:19:44;3.80;;;2.07;;
8066;SDS011;4076;48.076;9.118;2023-04-25T05:22:09;4.83;;;2.57;;
8066;SDS011;4076;48.076;9.118;2023-04-25T05:24:35;6.63;;;3.07;;
8066;SDS011;4076;48.076;9.118;2023-04-25T05:27:01;3.50;;;2.27;;
8066;SDS011;4076;48.076;9.118;2023-04-25T05:29:27;3.13;;;2.10;;
8066;SDS011;4076;48.076;9.118;2023-04-25T05:31:53;4.33;;;3.07;;
8066;SDS011;4076;48.076;9.118;2023-04-25T05:34:18;4.20;;;2.30;;
8066;SDS011;4076;48.076;9.118;2023-04-25T05:36:44;4.40;;;2.30;;
8066;SDS011;4076;48.076;9.118;2023-04-25T05:39:13;3.90;;;2.73;;
8066;SDS011;4076;48.076;9.118;2023-04-25T05:41:39;4.13;;;2.33;;
8066;SDS011;4076;48.076;9.118;2023-04-25T05:44:05;5.77;;;2.90;;
8066;SDS011;4076;48.076;9.118;2023-04-25T05:46:31;3.80;;;2.57;;
8066;SDS011;4076;48.076;9.118;2023-04-25T05:48:56;3.10;;;2.17;;
8066;SDS011;4076;48.076;9.118;2023-04-25T05:51:22;5.00;;;2.83;;
8066;SDS011;4076;48.076;9.118;2023-04-25T05:53:48;4.10;;;2.50;;
8066;SDS011;4076;48.076;9.118;2023-04-25T05:56:13;3.60;;;2.23;;
8066;SDS011;4076;48.076;9.118;2023-04-25T05:58:42;4.10;;;2.30;;
8066;SDS011;4076;48.076;9.118;2023-04-25T06:01:08;4.00;;;3.00;;
8066;SDS011;4076;48.076;9.118;2023-04-25T06:03:34;3.83;;;2.10;;
8066;SDS011;4076;48.076;9.118;2023-04-25T06:06:00;3.90;;;2.27;;
8066;SDS011;4076;48.076;9.118;2023-04-25T06:08:25;3.07;;;2.33;;
8066;SDS011;4076;48.076;9.118;2023-04-25T06:10:51;3.90;;;1.97;;
8066;SDS011;4076;48.076;9.118;2023-04-25T06:13:17;5.50;;;2.47;;
8066;SDS011;4076;48.076;9.118;2023-04-25T06:15:43;2.90;;;2.03;;
8066;SDS011;4076;48.076;9.118;2023-04-25T06:18:08;4.50;;;2.87;;
8066;SDS011;4076;48.076;9.118;2023-04-25T06:20:34;4.30;;;2.60;;
8066;SDS011;4076;48.076;9.118;2023-04-25T06:23:00;5.03;;;3.00;;
8066;SDS011;4076;48.076;9.118;2023-04-25T06:25:25;3.97;;;2.80;;
8066;SDS011;4076;48.076;9.118;2023-04-25T06:27:51;4.10;;;2.77;;
8066;SDS011;4076;48.076;9.118;2023-04-25T06:30:17;4.77;;;2.73;;
8066;SDS011;4076;48.076;9.118;2023-04-25T06:32:47;6.90;;;4.37;;
8066;SDS011;4076;48.076;9.118;2023-04-25T06:35:12;4.57;;;3.73;;
8066;SDS011;4076;48.076;9.118;2023-04-25T06:37:38;5.73;;;2.80;;
8066;SDS011;4076;48.076;9.118;2023-04-25T06:40:04;3.93;;;2.60;;
8066;SDS011;4076;48.076;9.118;2023-04-25T06:42:30;7.37;;;3.00;;
8066;SDS011;4076;48.076;9.118;2023-04-25T06:44:56;7.03;;;3.60;;
8066;SDS011;4076;48.076;9.118;2023-04-25T06:47:22;4.20;;;2.20;;
8066;SDS011;4076;48.076;9.118;2023-04-25T06:49:47;4.50;;;2.77;;
8066;SDS011;4076;48.076;9.118;2023-04-25T06:52:13;9.80;;;3.93;;
8066;SDS011;4076;48.076;9.118;2023-04-25T06:54:38;3.77;;;2.67;;
8066;SDS011;4076;48.076;9.118;2023-04-25T06:57:04;5.03;;;2.30;;
8066;SDS011;4076;48.076;9.118;2023-04-25T06:59:30;5.00;;;2.80;;
8066;SDS011;4076;48.076;9.118;2023-04-25T07:01:55;5.20;;;2.30;;
8066;SDS011;4076;48.076;9.118;2023-04-25T07:04:21;4.27;;;2.93;;
8066;SDS011;4076;48.076;9.118;2023-04-25T07:06:46;4.60;;;2.37;;
8066;SDS011;4076;48.076;9.118;2023-04-25T07:09:13;5.00;;;2.30;;
8066;SDS011;4076;48.076;9.118;2023-04-25T07:11:38;3.97;;;2.17;;
8066;SDS011;4076;48.076;9.118;2023-04-25T07:14:04;3.87;;;2.60;;
8066;SDS011;4076;48.076;9.118;2023-04-25T07:16:29;4.40;;;2.67;;
8066;SDS011;4076;48.076;9.118;2023-04-25T07:18:55;5.20;;;3.20;;
8066;SDS011;4076;48.076;9.118;2023-04-25T07:21:21;5.83;;;3.30;;
8066;SDS011;4076;48.076;9.118;2023-04-25T07:23:46;3.77;;;2.90;;
8066;SDS011;4076;48.076;9.118;2023-04-25T07:26:12;5.43;;;2.80;;
8066;SDS011;4076;48.076;9.118;2023-04-25T07:28:38;6.30;;;2.73;;
8066;SDS011;4076;48.076;9.118;2023-04-25T07:31:03;4.50;;;2.47;;
8066;SDS011;4076;48.076;9.118;2023-04-25T07:33:30;4.90;;;3.77;;
8066;SDS011;4076;48.076;9.118;2023-04-25T07:35:55;4.00;;;2.57;;
8066;SDS011;4076;48.076;9.118;2023-04-25T07:38:21;7.23;;;5.40;;
8066;SDS011;4076;48.076;9.118;2023-04-25T07:40:47;4.97;;;3.20;;
8066;SDS011;4076;48.076;9.118;2023-04-25T07:43:13;5.10;;;3.07;;
8066;SDS011;4076;48.076;9.118;2023-04-25T07:45:41;6.07;;;3.23;;
8066;SDS011;4076;48.076;9.118;2023-04-25T07:48:08;6.90;;;4.70;;
8066;SDS011;4076;48.076;9.118;2023-04-25T07:50:33;6.60;;;4.20;;
8066;SDS011;4076;48.076;9.118;2023-04-25T07:52:59;5.77;;;3.90;;
8066;SDS011;4076;48.076;9.118;2023-04-25T07:55:25;4.73;;;3.17;;
8066;SDS011;4076;48.076;9.118;2023-04-25T07:57:51;4.50;;;2.30;;
8066;SDS011;4076;48.076;9.118;2023-04-25T08:00:16;4.07;;;2.83;;
8066;SDS011;4076;48.076;9.118;2023-04-25T08:02:42;5.13;;;3.70;;
8066;SDS011;4076;48.076;9.118;2023-04-25T08:05:08;3.80;;;2.40;;
8066;SDS011;4076;48.076;9.118;2023-04-25T08:07:36;4.77;;;2.60;;
8066;SDS011;4076;48.076;9.118;2023-04-25T08:10:03;3.77;;;2.27;;
8066;SDS011;4076;48.076;9.118;2023-04-25T08:12:30;12.43;;;3.67;;
8066;SDS011;4076;48.076;9.118;2023-04-25T08:14:55;4.93;;;2.37;;
8066;SDS011;4076;48.076;9.118;2023-04-25T08:17:21;3.73;;;2.00;;
8066;SDS011;4076;48.076;9.118;2023-04-25T08:19:47;8.23;;;1.93;;
8066;SDS011;4076;48.076;9.118;2023-04-25T08:22:12;2.90;;;1.80;;
8066;SDS011;4076;48.076;9.118;2023-04-25T08:24:38;4.10;;;1.50;;
8066;SDS011;4076;48.076;9.118;2023-04-25T08:27:03;3.83;;;1.60;;
8066;SDS011;4076;48.076;9.118;2023-04-25T08:29:29;3.50;;;1.60;;
8066;SDS011;4076;48.076;9.118;2023-04-25T08:31:55;2.77;;;1.40;;
8066;SDS011;4076;48.076;9.118;2023-04-25T08:34:20;3.00;;;1.53;;
8066;SDS011;4076;48.076;9.118;2023-04-25T08:36:46;3.63;;;1.30;;
8066;SDS011;4076;48.076;9.118;2023-04-25T08:39:11;2.90;;;1.30;;
8066;SDS011;4076;48.076;9.118;2023-04-25T08:41:38;3.73;;;1.50;;
8066;SDS011;4076;48.076;9.118;2023-04-25T08:44:05;5.60;;;1.40;;
8066;SDS011;4076;48.076;9.118;2023-04-25T08:46:37;4.80;;;1.63;;
8066;SDS011;4076;48.076;9.118;2023-04-25T08:49:03;2.40;;;1.10;;
8066;SDS011;4076;48.076;9.118;2023-04-25T08:51:31;3.77;;;1.60;;
8066;SDS011;4076;48.076;9.118;2023-04-25T08:54:02;5.23;;;1.63;;
8066;SDS011;4076;48.076;9.118;2023-04-25T08:56:41;4.83;;;2.43;;
8066;SDS011;4076;48.076;9.118;2023-04-25T08:59:09;3.30;;;1.90;;
8066;SDS011;4076;48.076;9.118;2023-04-25T09:01:36;3.70;;;1.70;;
8066;SDS011;4076;48.076;9.118;2023-04-25T09:04:02;3.27;;;1.90;;
8066;SDS011;4076;48.076;9.118;2023-04-25T09:06:31;3.03;;;1.57;;
8066;SDS011;4076;48.076;9.118;2023-04-25T09:09:02;3.07;;;1.67;;
8066;SDS011;4076;48.076;9.118;2023-04-25T09:11:30;2.60;;;1.40;;
8066;SDS011;4076;48.076;9.118;2023-04-25T09:14:11;2.90;;;1.20;;
8066;SDS011;4076;48.076;9.118;2023-04-25T09:19:32;2.57;;;1.40;;
8066;SDS011;4076;48.076;9.118;2023-04-25T09:22:01;3.00;;;1.60;;
8066;SDS011;4076;48.076;9.118;2023-04-25T09:24:37;2.30;;;1.23;;
8066;SDS011;4076;48.076;9.118;2023-04-25T09:27:06;2.80;;;1.20;;
8066;SDS011;4076;48.076;9.118;2023-04-25T09:29:34;2.30;;;1.13;;
8066;SDS011;4076;48.076;9.118;2023-04-25T09:32:11;2.50;;;1.43;;
8066;SDS011;4076;48.076;9.118;2023-04-25T09:34:44;3.27;;;1.43;;
8066;SDS011;4076;48.076;9.118;2023-04-25T09:37:18;2.37;;;0.97;;
8066;SDS011;4076;48.076;9.118;2023-04-25T09:39:48;2.00;;;0.93;;
8066;SDS011;4076;48.076;9.118;2023-04-25T09:42:16;2.00;;;0.90;;
8066;SDS011;4076;48.076;9.118;2023-04-25T09:44:45;2.37;;;0.83;;
8066;SDS011;4076;48.076;9.118;2023-04-25T09:47:12;2.00;;;0.80;;
8066;SDS011;4076;48.076;9.118;2023-04-25T09:49:40;2.30;;;0.90;;
8066;SDS011;4076;48.076;9.118;2023-04-25T09:52:07;1.90;;;0.80;;
8066;SDS011;4076;48.076;9.118;2023-04-25T09:54:33;1.90;;;0.90;;
8066;SDS011;4076;48.076;9.118;2023-04-25T09:57:06;2.00;;;0.90;;
8066;SDS011;4076;48.076;9.118;2023-04-25T09:59:38;2.87;;;1.23;;
8066;SDS011;4076;48.076;9.118;2023-04-25T10:02:07;2.57;;;1.03;;
8066;SDS011;4076;48.076;9.118;2023-04-25T10:04:34;2.10;;;0.90;;
8066;SDS011;4076;48.076;9.118;2023-04-25T10:07:03;2.40;;;1.10;;
8066;SDS011;4076;48.076;9.118;2023-04-25T10:09:32;2.03;;;0.90;;
8066;SDS011;4076;48.076;9.118;2023-04-25T10:12:01;2.70;;;1.00;;
8066;SDS011;4076;48.076;9.118;2023-04-25T10:14:29;3.40;;;1.50;;
8066;SDS011;4076;48.076;9.118;2023-04-25T10:16:57;4.87;;;3.10;;
8066;SDS011;4076;48.076;9.118;2023-04-25T10:19:24;7.30;;;3.33;;
8066;SDS011;4076;48.076;9.118;2023-04-25T10:21:51;8.10;;;4.90;;
8066;SDS011;4076;48.076;9.118;2023-04-25T10:24:28;6.07;;;3.60;;
8066;SDS011;4076;48.076;9.118;2023-04-25T10:26:53;3.10;;;1.23;;
8066;SDS011;4076;48.076;9.118;2023-04-25T10:29:21;2.10;;;0.83;;
8066;SDS011;4076;48.076;9.118;2023-04-25T10:31:48;1.97;;;0.70;;
8066;SDS011;4076;48.076;9.118;2023-04-25T10:34:15;2.33;;;0.80;;
8066;SDS011;4076;48.076;9.118;2023-04-25T10:36:41;3.10;;;0.80;;
8066;SDS011;4076;48.076;9.118;2023-04-25T10:39:07;2.07;;;0.70;;
8066;SDS011;4076;48.076;9.118;2023-04-25T10:41:46;2.40;;;1.00;;
8066;SDS011;4076;48.076;9.118;2023-04-25T10:44:15;2.53;;;0.90;;
8066;SDS011;4076;48.076;9.118;2023-04-25T10:46:41;2.20;;;1.00;;
8066;SDS011;4076;48.076;9.118;2023-04-25T10:49:09;2.33;;;0.80;;
8066;SDS011;4076;48.076;9.118;2023-04-25T10:51:36;2.60;;;1.30;;
8066;SDS011;4076;48.076;9.118;2023-04-25T10:54:06;2.50;;;1.20;;
8066;SDS011;4076;48.076;9.118;2023-04-25T10:56:33;2.20;;;0.80;;
8066;SDS011;4076;48.076;9.118;2023-04-25T10:59:11;2.70;;;1.00;;
8066;SDS011;4076;48.076;9.118;2023-04-25T11:01:41;1.90;;;0.70;;
8066;SDS011;4076;48.076;9.118;2023-04-25T11:04:30;2.20;;;0.90;;
8066;SDS011;4076;48.076;9.118;2023-04-25T11:09:33;2.00;;;0.80;;
8066;SDS011;4076;48.076;9.118;2023-04-25T11:12:00;2.10;;;0.70;;
8066;SDS011;4076;48.076;9.118;2023-04-25T11:14:26;1.90;;;0.70;;
8066;SDS011;4076;48.076;9.118;2023-04-25T11:16:52;2.30;;;1.00;;
8066;SDS011;4076;48.076;9.118;2023-04-25T11:19:20;2.20;;;0.90;;
8066;SDS011;4076;48.076;9.118;2023-04-25T11:21:46;2.20;;;0.90;;
8066;SDS011;4076;48.076;9.118;2023-04-25T11:24:12;2.00;;;0.80;;
8066;SDS011;4076;48.076;9.118;2023-04-25T11:26:38;2.03;;;0.80;;
8066;SDS011;4076;48.076;9.118;2023-04-25T11:29:06;6.63;;;4.67;;
8066;SDS011;4076;48.076;9.118;2023-04-25T11:31:31;2.37;;;1.10;;
8066;SDS011;4076;48.076;9.118;2023-04-25T11:33:57;2.10;;;0.90;;
8066;SDS011;4076;48.076;9.118;2023-04-25T11:36:26;2.00;;;0.80;;
8066;SDS011;4076;48.076;9.118;2023-04-25T11:38:51;2.67;;;1.07;;
8066;SDS011;4076;48.076;9.118;2023-04-25T11:41:20;2.40;;;1.17;;
8066;SDS011;4076;48.076;9.118;2023-04-25T11:43:47;2.57;;;0.90;;
8066;SDS011;4076;48.076;9.118;2023-04-25T11:46:13;2.20;;;1.00;;
8066;SDS011;4076;48.076;9.118;2023-04-25T11:48:40;2.10;;;0.90;;
8066;SDS011;4076;48.076;9.118;2023-04-25T11:51:07;2.60;;;1.20;;
8066;SDS011;4076;48.076;9.118;2023-04-25T11:53:33;2.10;;;0.90;;
8066;SDS011;4076;48.076;9.118;2023-04-25T11:55:59;2.10;;;0.80;;
8066;SDS011;4076;48.076;9.118;2023-04-25T11:58:25;2.30;;;0.97;;
8066;SDS011;4076;48.076;9.118;2023-04-25T12:00:51;2.80;;;1.73;;
8066;SDS011;4076;48.076;9.118;2023-04-25T12:03:17;2.53;;;0.90;;
8066;SDS011;4076;48.076;9.118;2023-04-25T12:05:44;2.00;;;0.80;;
8066;SDS011;4076;48.076;9.118;2023-04-25T12:08:13;1.80;;;0.70;;
8066;SDS011;4076;48.076;9.118;2023-04-25T12:10:40;1.90;;;0.80;;
8066;SDS011;4076;48.076;9.118;2023-04-25T12:13:24;2.30;;;0.93;;
8066;SDS011;4076;48.076;9.118;2023-04-25T12:15:51;1.93;;;0.90;;
8066;SDS011;4076;48.076;9.118;2023-04-25T12:18:19;2.00;;;0.80;;
8066;SDS011;4076;48.076;9.118;2023-04-25T12:20:46;2.00;;;0.90;;
8066;SDS011;4076;48.076;9.118;2023-04-25T12:23:11;3.03;;;1.10;;
8066;SDS011;4076;48.076;9.118;2023-04-25T12:28:14;2.63;;;1.00;;
8066;SDS011;4076;48.076;9.118;2023-04-25T12:33:24;2.30;;;0.90;;
8066;SDS011;4076;48.076;9.118;2023-04-25T12:35:52;2.13;;;1.00;;
8066;SDS011;4076;48.076;9.118;2023-04-25T12:38:24;2.00;;;0.73;;
8066;SDS011;4076;48.076;9.118;2023-04-25T12:40:55;2.47;;;0.90;;
8066;SDS011;4076;48.076;9.118;2023-04-25T12:43:21;2.00;;;0.80;;
8066;SDS011;4076;48.076;9.118;2023-04-25T12:45:47;2.13;;;1.03;;
8066;SDS011;4076;48.076;9.118;2023-04-25T12:48:14;2.30;;;0.90;;
8066;SDS011;4076;48.076;9.118;2023-04-25T12:50:40;2.70;;;1.10;;
8066;SDS011;4076;48.076;9.118;2023-04-25T12:53:06;2.30;;;1.00;;
8066;SDS011;4076;48.076;9.118;2023-04-25T12:55:31;2.10;;;1.00;;
8066;SDS011;4076;48.076;9.118;2023-04-25T12:57:57;2.33;;;1.10;;
8066;SDS011;4076;48.076;9.118;2023-04-25T13:00:23;2.20;;;1.10;;
8066;SDS011;4076;48.076;9.118;2023-04-25T13:02:48;4.07;;;2.30;;
8066;SDS011;4076;48.076;9.118;2023-04-25T13:05:14;3.70;;;2.57;;
8066;SDS011;4076;48.076;9.118;2023-04-25T13:07:40;3.57;;;3.20;;
8066;SDS011;4076;48.076;9.118;2023-04-25T13:10:06;5.67;;;4.07;;
8066;SDS011;4076;48.076;9.118;2023-04-25T13:12:32;4.97;;;2.93;;
8066;SDS011;4076;48.076;9.118;2023-04-25T13:14:58;3.37;;;2.13;;
8066;SDS011;4076;48.076;9.118;2023-04-25T13:17:24;3.23;;;1.73;;
8066;SDS011;4076;48.076;9.118;2023-04-25T13:19:49;3.03;;;1.63;;
8066;SDS011;4076;48.076;9.118;2023-04-25T13:22:15;2.77;;;1.40;;
8066;SDS011;4076;48.076;9.118;2023-04-25T13:24:42;2.63;;;1.53;;
8066;SDS011;4076;48.076;9.118;2023-04-25T13:27:07;2.60;;;1.30;;
8066;SDS011;4076;48.076;9.118;2023-04-25T13:29:33;3.30;;;1.80;;
8066;SDS011;4076;48.076;9.118;2023-04-25T13:32:00;2.50;;;1.40;;
8066;SDS011;4076;48.076;9.118;2023-04-25T13:34:27;2.50;;;1.37;;
8066;SDS011;4076;48.076;9.118;2023-04-25T13:36:54;2.83;;;1.47;;
8066;SDS011;4076;48.076;9.118;2023-04-25T13:39:19;2.70;;;1.27;;
8066;SDS011;4076;48.076;9.118;2023-04-25T13:41:45;3.10;;;1.40;;
8066;SDS011;4076;48.076;9.118;2023-04-25T13:44:11;2.10;;;1.20;;
8066;SDS011;4076;48.076;9.118;2023-04-25T13:46:37;2.70;;;1.20;;
8066;SDS011;4076;48.076;9.118;2023-04-25T13:49:03;2.87;;;1.43;;
8066;SDS011;4076;48.076;9.118;2023-04-25T13:51:29;3.03;;;1.40;;
8066;SDS011;4076;48.076;9.118;2023-04-25T13:53:55;2.80;;;1.30;;
8066;SDS011;4076;48.076;9.118;2023-04-25T13:56:21;2.50;;;1.60;;
8066;SDS011;4076;48.076;9.118;2023-04-25T13:58:48;2.30;;;1.30;;
8066;SDS011;4076;48.076;9.118;2023-04-25T14:01:15;3.67;;;2.03;;
8066;SDS011;4076;48.076;9.118;2023-04-25T14:03:40;2.43;;;1.40;;
8066;SDS011;4076;48.076;9.118;2023-04-25T14:06:06;2.70;;;1.30;;
8066;SDS011;4076;48.076;9.118;2023-04-25T14:08:33;2.60;;;1.40;;
8066;SDS011;4076;48.076;9.118;2023-04-25T14:10:59;3.60;;;2.80;;
8066;SDS011;4076;48.076;9.118;2023-04-25T14:13:24;3.90;;;1.80;;
8066;SDS011;4076;48.076;9.118;2023-04-25T14:15:50;2.50;;;1.10;;
8066;SDS011;4076;48.076;9.118;2023-04-25T14:18:16;2.20;;;1.30;;
8066;SDS011;4076;48.076;9.118;2023-04-25T14:20:42;2.50;;;1.33;;
8066;SDS011;4076;48.076;9.118;2023-04-25T14:23:07;2.37;;;1.23;;
8066;SDS011;4076;48.076;9.118;2023-04-25T14:25:33;1.93;;;1.03;;
8066;SDS011;4076;48.076;9.118;2023-04-25T14:28:00;2.80;;;1.40;;
8066;SDS011;4076;48.076;9.118;2023-04-25T14:30:26;3.03;;;1.50;;
8066;SDS011;4076;48.076;9.118;2023-04-25T14:32:51;2.57;;;1.30;;
8066;SDS011;4076;48.076;9.118;2023-04-25T14:35:17;2.80;;;1.77;;
8066;SDS011;4076;48.076;9.118;2023-04-25T14:37:42;2.17;;;1.20;;
8066;SDS011;4076;48.076;9.118;2023-04-25T14:40:08;2.50;;;1.30;;
8066;SDS011;4076;48.076;9.118;2023-04-25T14:42:35;2.37;;;1.30;;
8066;SDS011;4076;48.076;9.118;2023-04-25T14:45:02;2.37;;;1.10;;
8066;SDS011;4076;48.076;9.118;2023-04-25T14:47:28;2.50;;;1.40;;
8066;SDS011;4076;48.076;9.118;2023-04-25T14:49:54;2.50;;;1.30;;
8066;SDS011;4076;48.076;9.118;2023-04-25T14:52:20;3.67;;;1.30;;
8066;SDS011;4076;48.076;9.118;2023-04-25T14:54:46;11.57;;;2.00;;
8066;SDS011;4076;48.076;9.118;2023-04-25T14:57:12;3.70;;;2.80;;
8066;SDS011;4076;48.076;9.118;2023-04-25T14:59:38;3.13;;;1.80;;
8066;SDS011;4076;48.076;9.118;2023-04-25T15:02:03;3.50;;;2.27;;
8066;SDS011;4076;48.076;9.118;2023-04-25T15:04:29;4.63;;;3.17;;
8066;SDS011;4076;48.076;9.118;2023-04-25T15:06:55;5.40;;;3.23;;
8066;SDS011;4076;48.076;9.118;2023-04-25T15:09:20;3.20;;;1.80;;
8066;SDS011;4076;48.076;9.118;2023-04-25T15:11:48;3.30;;;1.90;;
8066;SDS011;4076;48.076;9.118;2023-04-25T15:14:13;4.73;;;2.50;;
8066;SDS011;4076;48.076;9.118;2023-04-25T15:16:39;8.87;;;5.53;;
8066;SDS011;4076;48.076;9.118;2023-04-25T15:19:05;2.73;;;1.47;;
8066;SDS011;4076;48.076;9.118;2023-04-25T15:21:31;2.63;;;1.07;;